Time;durP1;ratioP1;P1;durP2;ratioP2;P2;SDS_P1;SDS_P2;PMS_P1;PMS_P2;Temp;Humidity;BMP_temperature;BMP_pressure;BME280_temperature;BME280_humidity;BME280_pressure;Samples;Min_cycle;Max_cycle;Signal;HPM_P1;HPM_P2
2022/02/17 00:00:24;;;;;;;0.70;0.70;;;11.30;99.90;;;;;;5073755;28;20232;-71
2022/02/17 00:02:51;;;;;;;0.80;0.80;;;11.30;99.90;;;;;;5073212;28;20234;-70
2022/02/17 00:05:18;;;;;;;0.80;0.60;;;11.30;99.90;;;;;;5074069;28;20563;-71
2022/02/17 00:07:46;;;;;;;0.80;0.70;;;11.40;99.90;;;;;;5073502;28;20232;-70
2022/02/17 00:10:13;;;;;;;1.10;0.70;;;11.40;99.90;;;;;;5073841;28;20203;-71
2022/02/17 00:12:40;;;;;;;1.05;0.70;;;11.50;99.90;;;;;;5073446;28;20231;-71
2022/02/17 00:15:08;;;;;;;0.77;0.68;;;11.50;99.90;;;;;;5073789;28;20311;-71
2022/02/17 00:17:34;;;;;;;0.90;0.60;;;11.60;99.90;;;;;;5073571;28;20228;-71
2022/02/17 00:20:01;;;;;;;0.80;0.70;;;11.60;99.90;;;;;;5073922;28;20664;-71
2022/02/17 00:22:28;;;;;;;1.10;0.80;;;11.70;99.90;;;;;;5073452;28;20590;-71
2022/02/17 00:24:56;;;;;;;0.80;0.70;;;11.70;99.90;;;;;;5073673;28;20737;-71
2022/02/17 00:27:23;;;;;;;2.25;0.70;;;11.70;99.90;;;;;;5074411;28;20224;-71
2022/02/17 00:29:50;;;;;;;0.80;0.70;;;11.70;99.90;;;;;;5074013;28;20220;-71
2022/02/17 00:32:16;;;;;;;0.80;0.70;;;11.70;99.90;;;;;;5073509;28;20587;-71
2022/02/17 00:34:43;;;;;;;0.80;0.60;;;11.80;99.90;;;;;;5073531;28;20211;-71
2022/02/17 00:37:10;;;;;;;0.90;0.75;;;11.80;99.90;;;;;;5073910;28;20234;-71
2022/02/17 00:39:36;;;;;;;0.80;0.65;;;11.80;99.90;;;;;;5074081;28;20201;-71
2022/02/17 00:42:05;;;;;;;0.80;0.70;;;11.80;99.90;;;;;;5071140;28;20204;-71
2022/02/17 00:44:33;;;;;;;0.90;0.80;;;11.80;99.90;;;;;;5070347;28;20204;-70
2022/02/17 00:47:00;;;;;;;0.90;0.70;;;11.80;99.90;;;;;;5069967;28;20257;-71
2022/02/17 00:49:29;;;;;;;1.00;0.75;;;11.80;99.90;;;;;;5070387;28;20236;-71
2022/02/17 00:51:56;;;;;;;1.08;0.80;;;11.80;99.90;;;;;;5069746;28;20204;-71
2022/02/17 00:54:23;;;;;;;0.80;0.60;;;11.80;99.90;;;;;;5069914;28;20208;-71
2022/02/17 00:56:50;;;;;;;0.80;0.70;;;11.70;99.90;;;;;;5070045;28;20224;-70
2022/02/17 00:59:18;;;;;;;0.88;0.70;;;11.70;99.90;;;;;;5070183;28;20204;-71
2022/02/17 01:01:46;;;;;;;1.42;0.70;;;11.70;99.90;;;;;;5070201;28;20519;-71
2022/02/17 01:04:13;;;;;;;0.80;0.60;;;11.70;99.90;;;;;;5069461;28;20267;-71
2022/02/17 01:06:40;;;;;;;0.85;0.80;;;11.60;99.90;;;;;;5069745;28;20224;-71
2022/02/17 01:09:07;;;;;;;1.50;0.70;;;11.60;99.90;;;;;;5069447;28;20231;-71
2022/02/17 01:11:34;;;;;;;0.93;0.73;;;11.60;99.90;;;;;;5069904;28;20208;-71
2022/02/17 01:14:01;;;;;;;0.80;0.70;;;11.50;99.90;;;;;;5069311;28;20217;-71
2022/02/17 01:16:29;;;;;;;1.00;0.70;;;11.50;99.90;;;;;;5070467;28;20228;-71
2022/02/17 01:18:56;;;;;;;0.70;0.60;;;11.40;99.90;;;;;;5070700;28;20204;-71
2022/02/17 01:21:23;;;;;;;0.90;0.70;;;11.30;99.90;;;;;;5071003;28;20205;-71
2022/02/17 01:23:50;;;;;;;1.00;0.90;;;11.20;99.90;;;;;;5070201;28;20196;-71
2022/02/17 01:26:17;;;;;;;0.80;0.70;;;11.20;99.90;;;;;;5070086;28;20821;-71
2022/02/17 01:28:44;;;;;;;0.80;0.70;;;11.10;99.90;;;;;;5069265;28;20225;-71
2022/02/17 01:31:10;;;;;;;0.80;0.80;;;11.00;99.90;;;;;;5070440;28;20200;-71
2022/02/17 01:36:07;;;;;;;1.10;0.80;;;10.90;99.90;;;;;;5092217;28;20232;-72
2022/02/17 01:38:34;;;;;;;0.80;0.75;;;10.90;99.90;;;;;;5077243;28;20193;-73
2022/02/17 01:41:01;;;;;;;0.90;0.75;;;10.90;99.90;;;;;;5077040;28;20196;-73
2022/02/17 01:43:28;;;;;;;0.80;0.70;;;10.90;99.90;;;;;;5076469;28;20656;-73
2022/02/17 01:45:54;;;;;;;0.80;0.60;;;10.90;99.90;;;;;;5076520;28;20220;-72
2022/02/17 01:48:21;;;;;;;0.70;0.60;;;10.90;99.90;;;;;;5076991;28;20345;-72
2022/02/17 01:50:48;;;;;;;0.80;0.70;;;10.90;99.90;;;;;;5077073;28;20200;-72
2022/02/17 01:53:16;;;;;;;0.90;0.70;;;10.90;99.90;;;;;;5076717;28;20621;-72
2022/02/17 01:55:46;;;;;;;0.90;0.70;;;10.90;99.90;;;;;;5077147;28;20506;-73
2022/02/17 01:58:14;;;;;;;0.90;0.70;;;10.90;99.90;;;;;;5078123;28;20211;-72
2022/02/17 02:00:42;;;;;;;0.98;0.70;;;10.90;99.90;;;;;;5077940;28;20200;-72
2022/02/17 02:03:09;;;;;;;0.80;0.70;;;10.80;99.90;;;;;;5076998;28;20204;-72
2022/02/17 02:05:36;;;;;;;0.77;0.60;;;10.80;99.90;;;;;;5077245;28;20204;-72
2022/02/17 02:08:04;;;;;;;0.93;0.80;;;10.80;99.90;;;;;;5077332;28;20211;-72
2022/02/17 02:10:32;;;;;;;0.80;0.70;;;10.70;99.90;;;;;;5077673;28;20691;-72
2022/02/17 02:13:00;;;;;;;0.80;0.70;;;10.70;99.90;;;;;;5075578;28;20211;-72
2022/02/17 02:15:28;;;;;;;0.70;0.70;;;10.70;99.90;;;;;;5076900;28;20207;-72
2022/02/17 02:17:55;;;;;;;0.80;0.68;;;10.70;99.90;;;;;;5076699;28;20232;-72
2022/02/17 02:20:23;;;;;;;1.10;0.80;;;10.60;99.90;;;;;;5077441;28;20569;-72
2022/02/17 02:22:49;;;;;;;0.70;0.60;;;10.60;99.90;;;;;;5076304;28;20219;-72
2022/02/17 02:25:16;;;;;;;0.90;0.70;;;10.60;99.90;;;;;;5077069;28;20209;-72
2022/02/17 02:27:43;;;;;;;1.13;0.70;;;10.60;99.90;;;;;;5076414;28;20223;-72
2022/02/17 02:30:10;;;;;;;0.90;0.70;;;10.60;99.90;;;;;;5075847;28;20224;-72
2022/02/17 02:32:37;;;;;;;1.00;0.70;;;10.60;99.90;;;;;;5074573;28;20238;-72
2022/02/17 02:35:05;;;;;;;0.90;0.75;;;10.60;99.90;;;;;;5074647;28;20216;-73
2022/02/17 02:37:33;;;;;;;0.80;0.70;;;10.60;99.90;;;;;;5079284;28;20719;-73
2022/02/17 02:39:59;;;;;;;0.80;0.70;;;10.60;99.90;;;;;;5077437;28;20254;-73
2022/02/17 02:42:26;;;;;;;0.80;0.70;;;10.50;99.90;;;;;;5077140;28;20204;-72
2022/02/17 02:44:53;;;;;;;1.55;0.70;;;10.50;99.90;;;;;;5076124;28;20211;-72
2022/02/17 02:47:20;;;;;;;1.10;0.70;;;10.50;99.90;;;;;;5077422;28;20366;-72
2022/02/17 02:49:47;;;;;;;0.90;0.70;;;10.50;99.90;;;;;;5075726;28;20220;-72
2022/02/17 02:52:13;;;;;;;0.80;0.70;;;10.40;99.90;;;;;;5074571;28;20211;-72
2022/02/17 02:54:41;;;;;;;0.98;0.77;;;10.40;99.90;;;;;;5075747;28;20204;-72
2022/02/17 02:57:08;;;;;;;0.70;0.70;;;10.40;99.90;;;;;;5075650;28;20624;-73
2022/02/17 02:59:36;;;;;;;0.80;0.70;;;10.40;99.90;;;;;;5074809;28;20291;-72
2022/02/17 03:02:03;;;;;;;0.85;0.70;;;10.40;99.90;;;;;;5074711;28;20872;-72
2022/02/17 03:04:29;;;;;;;1.05;0.70;;;10.40;99.90;;;;;;5073575;28;20200;-72
2022/02/17 03:06:56;;;;;;;0.70;0.70;;;10.40;99.90;;;;;;5073072;28;20224;-72
2022/02/17 03:09:23;;;;;;;0.70;0.63;;;10.40;99.90;;;;;;5073036;28;20231;-72
2022/02/17 03:11:51;;;;;;;0.80;0.70;;;10.40;99.90;;;;;;5072335;28;20210;-72
2022/02/17 03:14:18;;;;;;;0.80;0.70;;;10.40;99.90;;;;;;5071644;28;20566;-72
2022/02/17 03:16:45;;;;;;;0.70;0.60;;;10.40;99.90;;;;;;5073699;28;20216;-73
2022/02/17 03:19:13;;;;;;;0.80;0.70;;;10.40;99.90;;;;;;5079716;28;20200;-73
2022/02/17 03:21:40;;;;;;;0.75;0.68;;;10.40;99.90;;;;;;5079318;28;20215;-72
2022/02/17 03:24:07;;;;;;;0.70;0.60;;;10.50;99.90;;;;;;5078037;28;20204;-72
2022/02/17 03:26:34;;;;;;;0.90;0.70;;;10.50;99.90;;;;;;5075749;28;20602;-72
2022/02/17 03:29:03;;;;;;;0.70;0.60;;;10.50;99.90;;;;;;5076574;28;20257;-72
2022/02/17 03:31:30;;;;;;;1.13;0.70;;;10.50;99.90;;;;;;5076783;28;20204;-72
2022/02/17 03:33:57;;;;;;;0.73;0.60;;;10.50;99.90;;;;;;5072083;28;20628;-72
2022/02/17 03:36:24;;;;;;;0.70;0.70;;;10.50;99.90;;;;;;5073176;28;20225;-72
2022/02/17 03:38:50;;;;;;;0.70;0.60;;;10.50;99.90;;;;;;5072813;28;20204;-72
2022/02/17 03:41:17;;;;;;;0.70;0.60;;;10.50;99.90;;;;;;5073002;28;20207;-72
2022/02/17 03:43:44;;;;;;;1.00;0.80;;;10.40;99.90;;;;;;5071307;28;20203;-72
2022/02/17 03:46:12;;;;;;;0.70;0.60;;;10.40;99.90;;;;;;5071826;28;20216;-72
2022/02/17 03:48:39;;;;;;;0.80;0.60;;;10.40;99.90;;;;;;5071757;28;20255;-72
2022/02/17 03:51:05;;;;;;;0.80;0.70;;;10.40;99.90;;;;;;5071946;28;20236;-71
2022/02/17 03:53:32;;;;;;;0.70;0.60;;;10.40;99.90;;;;;;5071400;28;20612;-72
2022/02/17 03:55:59;;;;;;;0.93;0.70;;;10.40;99.90;;;;;;5071302;28;20331;-72
2022/02/17 04:01:11;;;;;;;0.70;0.60;;;10.40;99.90;;;;;;5072453;28;20246;-71
2022/02/17 04:03:38;;;;;;;0.70;0.60;;;10.30;99.90;;;;;;5075745;28;20204;-71
2022/02/17 04:06:05;;;;;;;1.15;0.80;;;10.40;99.90;;;;;;5075533;28;20224;-71
2022/02/17 04:08:32;;;;;;;0.80;0.70;;;10.40;99.90;;;;;;5075988;28;20541;-71
2022/02/17 04:11:02;;;;;;;0.80;0.60;;;10.50;99.90;;;;;;5071945;28;20235;-71
2022/02/17 04:13:29;;;;;;;0.90;0.70;;;10.50;99.90;;;;;;5072579;28;20204;-71
2022/02/17 04:15:56;;;;;;;0.80;0.60;;;10.60;99.90;;;;;;5072544;28;20698;-71
2022/02/17 04:18:24;;;;;;;0.80;0.80;;;10.60;99.90;;;;;;5075008;28;20200;-71
2022/02/17 04:20:51;;;;;;;0.80;0.70;;;10.60;99.90;;;;;;5076540;28;20225;-71
2022/02/17 04:23:17;;;;;;;0.80;0.70;;;10.60;99.90;;;;;;5075098;28;20200;-71
2022/02/17 04:25:44;;;;;;;0.90;0.70;;;10.60;99.90;;;;;;5075221;28;20622;-71
2022/02/17 04:28:11;;;;;;;0.80;0.70;;;10.70;99.90;;;;;;5075473;28;20223;-71
2022/02/17 04:30:37;;;;;;;0.70;0.70;;;10.70;99.90;;;;;;5074072;28;20281;-71
2022/02/17 04:33:05;;;;;;;0.80;0.70;;;10.70;99.90;;;;;;5073510;28;20552;-71
2022/02/17 04:35:33;;;;;;;1.00;0.73;;;10.80;99.90;;;;;;5080178;28;20211;-71
2022/02/17 04:37:59;;;;;;;1.10;0.80;;;10.70;99.90;;;;;;5083821;28;20216;-70
2022/02/17 04:43:07;;;;;;;1.23;0.70;;;10.70;99.90;;;;;;5083755;28;20192;-71
2022/02/17 04:45:33;;;;;;;0.70;0.60;;;10.60;99.90;;;;;;5083990;28;20195;-71
2022/02/17 04:48:03;;;;;;;1.50;0.65;;;10.60;99.90;;;;;;5085103;28;20655;-71
2022/02/17 04:50:29;;;;;;;1.05;0.80;;;10.60;99.90;;;;;;5091581;28;20216;-71
2022/02/17 04:52:57;;;;;;;1.17;0.70;;;10.60;99.90;;;;;;5094987;28;20674;-72
2022/02/17 04:55:24;;;;;;;0.70;0.60;;;10.60;99.90;;;;;;5094640;28;20211;-71
2022/02/17 04:57:51;;;;;;;1.10;0.75;;;10.70;99.90;;;;;;5094377;28;20249;-71
2022/02/17 05:00:18;;;;;;;1.00;0.70;;;10.70;99.90;;;;;;5095593;28;20627;-72
2022/02/17 05:02:45;;;;;;;0.77;0.70;;;10.70;99.90;;;;;;5094415;28;20313;-71
2022/02/17 05:05:12;;;;;;;0.70;0.70;;;10.70;99.90;;;;;;5096072;28;20204;-71
2022/02/17 05:07:39;;;;;;;1.00;0.70;;;10.70;99.90;;;;;;5097982;28;20225;-72
2022/02/17 05:10:08;;;;;;;0.80;0.70;;;10.70;99.90;;;;;;5100576;28;20239;-73
2022/02/17 05:12:35;;;;;;;0.80;0.70;;;10.70;99.90;;;;;;5090927;28;20196;-73
2022/02/17 05:15:01;;;;;;;0.70;0.60;;;10.70;99.90;;;;;;5087124;28;20923;-73
2022/02/17 05:17:28;;;;;;;0.80;0.70;;;10.80;99.90;;;;;;5086898;28;20223;-73
2022/02/17 05:19:55;;;;;;;1.00;0.80;;;10.80;99.90;;;;;;5088459;28;20218;-73
2022/02/17 05:22:22;;;;;;;1.75;0.70;;;10.90;99.90;;;;;;5085888;28;20199;-73
2022/02/17 05:24:49;;;;;;;1.20;0.80;;;10.90;99.90;;;;;;5079120;28;20189;-72
2022/02/17 05:27:17;;;;;;;1.55;0.70;;;10.80;99.90;;;;;;5077337;28;20239;-72
2022/02/17 05:29:43;;;;;;;1.27;0.70;;;10.80;99.90;;;;;;5077038;28;20201;-72
2022/02/17 05:32:10;;;;;;;0.90;0.70;;;10.80;99.90;;;;;;5077444;28;20200;-73
2022/02/17 05:34:37;;;;;;;0.90;0.60;;;10.80;99.90;;;;;;5077492;28;20214;-72
2022/02/17 05:37:04;;;;;;;1.50;0.95;;;10.80;99.90;;;;;;5077533;28;20224;-72
2022/02/17 05:39:31;;;;;;;3.55;0.80;;;10.80;99.90;;;;;;5077182;28;20211;-72
2022/02/17 05:41:57;;;;;;;1.15;0.80;;;10.80;99.90;;;;;;5076176;28;20208;-72
2022/02/17 05:44:25;;;;;;;2.13;0.90;;;10.80;99.90;;;;;;5076010;28;20208;-73
2022/02/17 05:46:52;;;;;;;0.82;0.70;;;10.80;99.90;;;;;;5075438;28;20230;-73
2022/02/17 05:49:19;;;;;;;1.10;0.90;;;10.80;99.90;;;;;;5075959;28;20232;-73
2022/02/17 05:51:45;;;;;;;0.93;0.77;;;10.80;99.90;;;;;;5075419;28;20707;-72
2022/02/17 05:54:12;;;;;;;1.77;1.67;;;10.80;99.90;;;;;;5075548;28;20254;-72
2022/02/17 05:56:40;;;;;;;1.27;0.90;;;10.80;99.90;;;;;;5076004;28;20633;-73
2022/02/17 05:59:07;;;;;;;0.98;0.80;;;10.80;99.90;;;;;;5075209;28;20239;-73
2022/02/17 06:01:35;;;;;;;1.40;0.88;;;10.80;99.90;;;;;;5075917;28;20197;-73
2022/02/17 06:04:01;;;;;;;1.40;0.85;;;10.80;99.90;;;;;;5075689;28;20204;-73
2022/02/17 06:06:28;;;;;;;0.93;0.75;;;10.80;99.90;;;;;;5076926;28;20589;-73
2022/02/17 06:08:55;;;;;;;1.55;0.80;;;10.80;99.90;;;;;;5080338;28;20204;-73
2022/02/17 06:11:22;;;;;;;1.15;0.85;;;10.80;99.90;;;;;;5079577;28;20216;-72
2022/02/17 06:13:48;;;;;;;2.85;0.95;;;10.80;99.90;;;;;;5077925;28;20197;-72
2022/02/17 06:16:15;;;;;;;3.08;1.05;;;10.80;99.90;;;;;;5076353;28;20231;-72
2022/02/17 06:18:43;;;;;;;3.00;1.05;;;10.70;99.90;;;;;;5076400;28;20196;-72
2022/02/17 06:21:10;;;;;;;1.50;1.02;;;10.70;99.90;;;;;;5075781;28;20203;-72
2022/02/17 06:23:36;;;;;;;2.08;0.90;;;10.70;99.90;;;;;;5075562;28;20694;-72
2022/02/17 06:26:03;;;;;;;2.67;1.00;;;10.70;99.90;;;;;;5075817;28;20220;-73
2022/02/17 06:28:30;;;;;;;3.15;1.25;;;10.60;99.90;;;;;;5076448;28;20206;-72
2022/02/17 06:30:57;;;;;;;3.03;1.35;;;10.60;99.90;;;;;;5076768;28;20224;-72
2022/02/17 06:33:24;;;;;;;2.97;1.45;;;10.50;99.90;;;;;;5075730;28;20197;-72
2022/02/17 06:35:52;;;;;;;2.38;1.50;;;10.50;99.90;;;;;;5076184;28;20614;-72
2022/02/17 06:38:18;;;;;;;2.75;1.70;;;10.50;99.90;;;;;;5073999;28;20211;-72
2022/02/17 06:40:45;;;;;;;2.30;1.40;;;10.40;99.90;;;;;;5073941;28;20204;-72
2022/02/17 06:43:15;;;;;;;2.20;1.40;;;10.40;99.90;;;;;;5074220;28;20211;-72
2022/02/17 06:45:44;;;;;;;3.20;1.50;;;10.40;99.90;;;;;;5074599;28;20606;-72
2022/02/17 06:48:11;;;;;;;2.55;1.45;;;10.40;99.90;;;;;;5074530;28;20208;-72
2022/02/17 06:50:38;;;;;;;4.90;1.67;;;10.40;99.90;;;;;;5074805;28;20216;-72
2022/02/17 06:53:07;;;;;;;4.57;1.52;;;10.40;99.90;;;;;;5080415;28;20215;-73
2022/02/17 06:55:34;;;;;;;1.65;1.20;;;10.40;99.90;;;;;;5083743;28;20193;-72
2022/02/17 06:58:01;;;;;;;4.20;1.88;;;10.40;99.90;;;;;;5088034;28;20205;-73
2022/02/17 07:00:28;;;;;;;4.03;1.90;;;10.40;99.90;;;;;;5080289;28;20203;-73
2022/02/17 07:02:56;;;;;;;3.88;2.00;;;10.40;99.90;;;;;;5079120;28;20694;-71
2022/02/17 07:05:25;;;;;;;7.10;2.03;;;10.40;99.90;;;;;;5078465;28;20204;-73
2022/02/17 07:07:52;;;;;;;4.15;1.60;;;10.40;99.90;;;;;;5077425;28;20208;-72
2022/02/17 07:13:01;;;;;;;4.50;1.80;;;10.40;99.90;;;;;;5074946;28;20200;-73
2022/02/17 07:15:28;;;;;;;5.05;1.90;;;10.40;99.90;;;;;;5075149;28;20201;-72
2022/02/17 07:17:55;;;;;;;6.63;1.92;;;10.40;99.90;;;;;;5074247;28;20295;-73
2022/02/17 07:20:22;;;;;;;3.58;1.95;;;10.40;99.90;;;;;;5073805;28;20609;-73
2022/02/17 07:22:49;;;;;;;5.70;1.75;;;10.40;99.90;;;;;;5072983;28;20208;-73
2022/02/17 07:25:16;;;;;;;4.07;1.80;;;10.30;99.90;;;;;;5073086;28;20243;-73
2022/02/17 07:27:44;;;;;;;3.13;1.70;;;10.30;99.90;;;;;;5072855;28;20281;-73
2022/02/17 07:30:12;;;;;;;6.22;2.35;;;10.30;99.90;;;;;;5072788;28;20205;-73
2022/02/17 07:32:41;;;;;;;2.47;1.70;;;10.30;99.90;;;;;;5072454;28;20200;-71
2022/02/17 07:35:09;;;;;;;4.00;1.50;;;10.30;99.90;;;;;;5150472;22;20262;-71
2022/02/17 07:37:35;;;;;;;6.88;1.50;;;10.40;99.90;;;;;;5069055;28;20224;-71
2022/02/17 07:40:02;;;;;;;3.65;1.65;;;10.60;99.90;;;;;;5070549;28;20201;-71
2022/02/17 07:42:29;;;;;;;1.65;1.45;;;11.00;99.90;;;;;;5069985;28;20200;-71
2022/02/17 07:44:59;;;;;;;2.53;1.58;;;11.50;99.90;;;;;;5070586;28;20200;-71
2022/02/17 07:47:26;;;;;;;3.60;1.67;;;11.60;99.90;;;;;;5070396;28;20273;-71
2022/02/17 07:49:54;;;;;;;4.05;2.15;;;11.60;99.90;;;;;;5070221;28;20208;-71
2022/02/17 07:52:21;;;;;;;2.33;1.40;;;11.60;99.90;;;;;;5072939;28;20254;-71
2022/02/17 07:54:48;;;;;;;4.18;2.35;;;11.80;99.90;;;;;;5074189;28;20602;-71
2022/02/17 07:57:15;;;;;;;4.15;1.65;;;12.10;99.90;;;;;;5074446;28;20219;-71
2022/02/17 07:59:41;;;;;;;5.30;1.80;;;12.50;99.90;;;;;;5074795;28;20204;-71
2022/02/17 08:02:09;;;;;;;2.83;1.70;;;12.70;99.90;;;;;;5073844;28;20196;-71
2022/02/17 08:04:36;;;;;;;3.58;1.80;;;12.70;99.90;;;;;;5074226;28;20236;-71
2022/02/17 08:07:04;;;;;;;3.53;1.75;;;12.70;99.90;;;;;;5074251;28;20258;-71
2022/02/17 08:09:31;;;;;;;4.57;1.73;;;13.10;99.90;;;;;;5075055;28;20205;-71
2022/02/17 08:11:58;;;;;;;6.00;2.28;;;13.90;99.90;;;;;;5073890;28;20711;-72
2022/02/17 08:14:24;;;;;;;3.25;1.83;;;14.80;99.90;;;;;;5073960;28;20212;-71
2022/02/17 08:16:51;;;;;;;3.30;1.90;;;15.40;99.90;;;;;;5073814;28;20247;-71
2022/02/17 08:19:20;;;;;;;3.27;1.77;;;15.90;99.90;;;;;;5073688;28;20469;-71
2022/02/17 08:21:46;;;;;;;5.40;1.90;;;16.30;99.90;;;;;;5073854;28;20476;-71
2022/02/17 08:24:15;;;;;;;3.60;2.10;;;16.40;99.90;;;;;;5072971;28;20458;-71
2022/02/17 08:26:42;;;;;;;4.10;1.97;;;16.90;99.70;;;;;;5073725;28;20565;-71
2022/02/17 08:29:10;;;;;;;4.30;2.10;;;16.90;98.60;;;;;;5073960;28;20958;-72
2022/02/17 08:31:37;;;;;;;4.80;2.17;;;16.90;98.70;;;;;;5073184;28;20493;-72
2022/02/17 08:34:04;;;;;;;4.60;2.37;;;17.20;98.50;;;;;;5072713;28;20861;-72
2022/02/17 08:36:33;;;;;;;4.20;2.10;;;17.20;98.00;;;;;;5073489;28;20482;-72
2022/02/17 08:38:59;;;;;;;6.33;2.20;;;17.30;97.40;;;;;;5073059;28;20842;-72
2022/02/17 08:41:26;;;;;;;5.20;2.23;;;17.40;97.40;;;;;;5073376;28;20836;-72
2022/02/17 08:43:53;;;;;;;4.77;1.93;;;17.30;96.80;;;;;;5067027;28;20462;-72
2022/02/17 08:46:21;;;;;;;8.73;2.90;;;17.30;96.30;;;;;;5073553;28;20486;-72
2022/02/17 08:48:51;;;;;;;4.97;1.83;;;17.20;95.60;;;;;;5072328;28;20962;-72
2022/02/17 08:51:21;;;;;;;4.47;2.70;;;16.60;95.80;;;;;;5072379;28;20544;-72
2022/02/17 08:53:51;;;;;;;4.33;2.23;;;16.60;96.10;;;;;;5071721;28;20565;-71
2022/02/17 08:56:19;;;;;;;6.20;2.87;;;17.20;96.10;;;;;;5072033;28;20920;-72
2022/02/17 08:58:47;;;;;;;5.93;2.27;;;17.80;95.50;;;;;;5071759;28;20516;-72
2022/02/17 09:01:14;;;;;;;5.67;2.70;;;18.20;95.20;;;;;;5072448;28;20455;-71
2022/02/17 09:03:42;;;;;;;3.67;2.23;;;18.50;94.30;;;;;;5071455;28;20463;-72
2022/02/17 09:06:09;;;;;;;4.43;2.20;;;18.30;93.90;;;;;;5071824;28;20572;-71
2022/02/17 09:08:36;;;;;;;7.30;2.20;;;18.50;94.10;;;;;;5072582;28;21043;-72
2022/02/17 09:11:06;;;;;;;5.30;2.30;;;18.90;93.40;;;;;;5071802;28;20479;-71
2022/02/17 09:13:33;;;;;;;6.10;2.50;;;19.10;92.70;;;;;;5071284;28;20462;-72
2022/02/17 09:16:01;;;;;;;4.87;2.23;;;18.30;93.20;;;;;;5071996;28;20501;-72
2022/02/17 09:18:28;;;;;;;6.03;3.17;;;17.60;93.60;;;;;;5071592;28;20469;-71
2022/02/17 09:20:56;;;;;;;6.77;2.20;;;17.40;92.70;;;;;;5071727;28;20474;-72
2022/02/17 09:23:24;;;;;;;5.17;2.43;;;17.70;92.30;;;;;;5072387;28;20466;-72
2022/02/17 09:25:56;;;;;;;9.33;2.53;;;18.20;91.00;;;;;;5071864;28;20478;-71
2022/02/17 09:28:25;;;;;;;7.07;2.63;;;18.60;90.90;;;;;;5071588;28;21060;-72
2022/02/17 09:30:53;;;;;;;6.10;2.63;;;19.10;90.20;;;;;;5071247;28;20458;-72
2022/02/17 09:33:20;;;;;;;5.70;2.53;;;19.20;89.70;;;;;;5071611;28;20458;-72
2022/02/17 09:35:50;;;;;;;5.83;2.80;;;18.70;90.30;;;;;;5070820;28;20581;-72
2022/02/17 09:38:17;;;;;;;5.73;2.77;;;18.70;90.00;;;;;;5071628;28;20519;-72
2022/02/17 09:40:45;;;;;;;7.13;2.90;;;18.90;89.80;;;;;;5071645;28;20838;-71
2022/02/17 09:43:13;;;;;;;7.90;3.07;;;19.20;90.00;;;;;;5070839;28;20481;-72
2022/02/17 09:45:44;;;;;;;8.23;3.90;;;18.10;90.00;;;;;;5071146;28;20469;-71
2022/02/17 09:48:12;;;;;;;5.43;2.17;;;16.70;91.50;;;;;;5072256;28;20469;-72
2022/02/17 09:50:39;;;;;;;8.17;3.00;;;15.40;92.50;;;;;;5071053;28;20462;-72
2022/02/17 09:53:07;;;;;;;4.97;2.40;;;14.20;93.50;;;;;;5070942;28;20544;-72
2022/02/17 09:55:34;;;;;;;7.50;2.90;;;13.40;94.60;;;;;;5070787;28;20473;-72
2022/02/17 09:58:02;;;;;;;7.53;3.00;;;12.80;95.30;;;;;;5070893;28;20482;-71
2022/02/17 10:00:29;;;;;;;9.00;3.10;;;12.50;96.10;;;;;;5071270;28;20535;-71
2022/02/17 10:03:25;;;;;;;9.20;3.33;;;12.20;97.00;;;;;;5071219;28;20201;-72
2022/02/17 10:06:09;;;;;;;17.38;3.53;;;12.40;97.70;;;;;;5071559;28;20224;-72
2022/02/17 10:08:37;;;;;;;10.53;2.60;;;13.90;96.80;;;;;;5071072;28;20205;-72
2022/02/17 10:11:04;;;;;;;5.70;2.63;;;15.60;95.20;;;;;;5071133;28;20953;-72
2022/02/17 10:13:31;;;;;;;6.47;3.63;;;16.90;94.10;;;;;;5071544;28;20466;-72
2022/02/17 10:15:59;;;;;;;8.07;2.90;;;17.60;93.10;;;;;;5070896;28;20482;-72
2022/02/17 10:18:30;;;;;;;6.00;2.43;;;18.00;92.50;;;;;;5071516;28;20462;-71
2022/02/17 10:21:02;;;;;;;9.47;3.00;;;17.40;92.70;;;;;;5072478;28;20462;-71
2022/02/17 10:23:31;;;;;;;7.40;2.30;;;16.50;93.30;;;;;;5071522;28;20462;-71
2022/02/17 10:26:03;;;;;;;5.97;2.43;;;16.60;93.30;;;;;;5072056;28;20642;-71
2022/02/17 10:28:33;;;;;;;6.73;2.37;;;15.80;93.60;;;;;;5072936;28;20497;-71
2022/02/17 10:31:00;;;;;;;3.70;2.07;;;15.30;94.30;;;;;;5069011;28;20569;-71
2022/02/17 10:33:39;;;;;;;6.03;2.63;;;15.50;93.70;;;;;;5070700;28;20974;-72
2022/02/17 10:36:06;;;;;;;6.87;2.80;;;16.00;93.60;;;;;;5073080;28;20486;-71
2022/02/17 10:38:33;;;;;;;4.43;2.50;;;16.80;92.80;;;;;;5072119;28;20466;-71
2022/02/17 10:40:59;;;;;;;9.13;3.30;;;16.80;92.40;;;;;;5072036;28;20454;-71
2022/02/17 10:43:29;;;;;;;5.37;2.27;;;15.60;93.30;;;;;;5071688;28;20459;-71
2022/02/17 10:45:55;;;;;;;9.17;2.73;;;14.40;94.20;;;;;;5075902;28;20485;-71
2022/02/17 10:48:24;;;;;;;11.23;3.40;;;13.70;94.90;;;;;;5090386;28;20457;-71
2022/02/17 10:51:11;;;;;;;7.35;3.03;;;14.10;95.40;;;;;;5091519;28;20457;-71
2022/02/17 10:53:42;;;;;;;7.60;2.53;;;14.90;94.60;;;;;;5090784;28;20294;-71
2022/02/17 10:56:10;;;;;;;8.53;3.00;;;14.70;94.60;;;;;;5091085;28;20517;-71
2022/02/17 10:58:43;;;;;;;7.57;3.00;;;14.20;95.00;;;;;;5090740;28;20454;-71
2022/02/17 11:01:11;;;;;;;8.00;3.20;;;14.50;95.50;;;;;;5091552;28;20211;-71
2022/02/17 11:03:39;;;;;;;6.67;2.70;;;15.60;94.20;;;;;;5091468;28;20462;-71
2022/02/17 11:06:09;;;;;;;6.00;2.60;;;16.60;93.00;;;;;;5090683;28;20484;-71
2022/02/17 11:08:36;;;;;;;5.40;2.80;;;16.30;93.00;;;;;;5090601;28;20457;-70
2022/02/17 11:11:04;;;;;;;4.57;2.40;;;15.90;92.90;;;;;;5077025;28;20815;-70
2022/02/17 11:13:33;;;;;;;7.70;2.80;;;15.50;93.60;;;;;;5069891;28;20493;-70
2022/02/17 11:16:03;;;;;;;9.33;3.23;;;16.10;93.00;;;;;;5069941;28;20827;-71
2022/02/17 11:18:30;;;;;;;5.07;2.63;;;17.10;92.10;;;;;;5071323;28;20458;-71
2022/02/17 11:20:58;;;;;;;10.00;2.97;;;17.60;90.90;;;;;;5071571;28;20537;-72
2022/02/17 11:23:31;;;;;;;9.33;2.73;;;17.80;90.10;;;;;;5070108;28;20462;-71
2022/02/17 11:25:59;;;;;;;6.70;2.80;;;17.00;90.00;;;;;;5071087;28;20531;-71
2022/02/17 11:28:34;;;;;;;7.83;2.70;;;16.10;90.70;;;;;;5071533;28;20759;-71
2022/02/17 11:31:03;;;;;;;6.80;2.57;;;15.30;91.60;;;;;;5073924;28;20832;-71
2022/02/17 11:33:32;;;;;;;4.37;2.93;;;14.60;91.90;;;;;;5070965;28;20569;-71
2022/02/17 11:36:22;;;;;;;11.10;3.40;;;14.00;92.40;;;;;;5070780;28;20492;-71
2022/02/17 11:38:52;;;;;;;9.30;3.07;;;13.40;92.70;;;;;;5070492;28;20467;-71
2022/02/17 11:41:20;;;;;;;9.38;3.00;;;12.90;93.30;;;;;;5069891;28;20455;-71
2022/02/17 11:43:48;;;;;;;11.07;3.25;;;12.60;93.70;;;;;;5068617;28;20631;-71
2022/02/17 11:46:17;;;;;;;6.40;3.20;;;12.50;93.90;;;;;;5068365;28;20252;-71
2022/02/17 11:48:48;;;;;;;5.15;3.00;;;12.70;93.90;;;;;;5069219;28;20204;-71
2022/02/17 11:51:18;;;;;;;12.15;3.35;;;13.10;93.20;;;;;;5069224;28;20208;-71
2022/02/17 11:53:46;;;;;;;6.30;2.93;;;13.60;92.80;;;;;;5070009;28;20240;-71
2022/02/17 11:56:41;;;;;;;9.30;3.20;;;14.90;91.60;;;;;;5070078;28;20482;-71
2022/02/17 11:59:23;;;;;;;7.20;2.83;;;16.10;90.30;;;;;;5059624;28;20992;-71
2022/02/17 12:01:51;;;;;;;9.13;3.73;;;17.40;88.40;;;;;;5069217;28;20546;-71
2022/02/17 12:04:19;;;;;;;11.30;3.60;;;17.40;86.70;;;;;;5069366;28;20493;-72
2022/02/17 12:06:50;;;;;;;9.10;2.63;;;16.50;88.70;;;;;;5069399;28;20986;-71
2022/02/17 12:09:35;;;;;;;9.67;3.60;;;15.70;90.30;;;;;;5069304;28;20571;-71
2022/02/17 12:12:41;;;;;;;7.93;2.73;;;15.10;90.90;;;;;;5081180;28;20995;-71
2022/02/17 12:15:14;;;;;;;9.55;3.45;;;14.00;92.60;;;;;;5089449;28;20552;-72
2022/02/17 12:17:44;;;;;;;9.38;3.50;;;14.30;92.90;;;;;;5088358;28;20227;-71
2022/02/17 12:20:13;;;;;;;8.23;3.63;;;15.40;92.50;;;;;;5089543;28;20682;-71
2022/02/17 12:22:51;;;;;;;6.30;3.10;;;16.20;91.90;;;;;;5088170;28;20952;-71
2022/02/17 12:25:25;;;;;;;7.70;3.63;;;16.90;91.30;;;;;;5088654;28;20671;-71
2022/02/17 12:27:54;;;;;;;10.80;3.30;;;17.30;90.40;;;;;;5091372;28;20487;-71
2022/02/17 12:30:31;;;;;;;13.50;3.80;;;17.90;90.10;;;;;;5090429;28;20461;-71
2022/02/17 12:33:13;;;;;;;7.80;3.13;;;18.40;89.20;;;;;;5089617;28;20496;-71
2022/02/17 12:35:46;;;;;;;7.17;3.53;;;18.40;89.60;;;;;;5089471;28;20968;-71
2022/02/17 12:38:14;;;;;;;11.60;3.87;;;18.60;88.80;;;;;;5090676;28;20461;-71
2022/02/17 12:40:43;;;;;;;10.00;3.97;;;18.40;89.10;;;;;;5093912;28;20473;-71
2022/02/17 12:43:10;;;;;;;10.23;3.83;;;17.70;89.90;;;;;;5093319;28;20462;-71
2022/02/17 12:45:45;;;;;;;10.57;3.77;;;17.70;89.10;;;;;;5093830;28;20464;-71
2022/02/17 12:48:14;;;;;;;8.03;3.60;;;18.00;88.60;;;;;;5093678;28;20464;-71
2022/02/17 12:50:42;;;;;;;8.43;3.47;;;18.50;88.00;;;;;;5091847;28;20540;-71
2022/02/17 12:53:10;;;;;;;7.70;4.03;;;19.20;86.10;;;;;;5087914;28;21004;-71
2022/02/17 12:55:44;;;;;;;9.73;3.67;;;19.50;84.00;;;;;;5092920;28;20464;-70
2022/02/17 12:58:12;;;;;;;7.00;2.60;;;19.20;84.00;;;;;;5092835;28;20461;-70
2022/02/17 13:00:43;;;;;;;10.03;3.23;;;18.70;83.50;;;;;;5081267;28;20474;-70